createdAt,value
2018-11-27T00:00:43.978Z,3.16
2018-11-27T00:01:46.923Z,3.17
2018-11-27T00:02:49.551Z,3.16
2018-11-27T00:03:56.812Z,3.25
2018-11-27T00:04:59.428Z,3.37
2018-11-27T00:06:02.528Z,3.44
2018-11-27T00:07:05.107Z,3.50
2018-11-27T00:08:08.607Z,3.50
2018-11-27T00:09:12.305Z,3.42
2018-11-27T00:10:15.702Z,3.33
2018-11-27T00:11:18.327Z,3.35
2018-11-27T00:12:21.263Z,3.46
2018-11-27T00:13:24.899Z,3.52
2018-11-27T00:14:27.847Z,3.47
2018-11-27T00:15:30.462Z,3.50
2018-11-27T00:16:33.053Z,3.54
2018-11-27T00:17:36.637Z,3.58
2018-11-27T00:18:39.663Z,3.61
2018-11-27T00:19:43.422Z,3.54
2018-11-27T00:20:46.242Z,3.44
2018-11-27T00:21:48.897Z,3.46
2018-11-27T00:22:51.678Z,3.50
2018-11-27T00:23:54.401Z,3.39
2018-11-27T00:24:57.286Z,3.27
2018-11-27T00:26:00.038Z,3.26
2018-11-27T00:27:02.698Z,3.34
2018-11-27T00:28:05.647Z,3.28
2018-11-27T00:29:08.253Z,3.27
2018-11-27T00:30:11.476Z,3.29
2018-11-27T00:31:14.400Z,3.33
2018-11-27T00:32:18.097Z,3.27
2018-11-27T00:33:20.703Z,3.26
2018-11-27T00:34:23.336Z,3.23
2018-11-27T00:35:27.195Z,3.24
2018-11-27T00:36:31.832Z,3.25
2018-11-27T00:37:34.815Z,3.27
2018-11-27T00:38:37.733Z,3.25
2018-11-27T00:40:50.321Z,3.28
2018-11-27T00:41:52.997Z,3.27
2018-11-27T00:42:55.648Z,3.33
2018-11-27T00:43:58.557Z,3.42
2018-11-27T00:45:01.976Z,3.50
2018-11-27T00:46:05.441Z,3.54
2018-11-27T00:47:08.397Z,3.53
2018-11-27T00:48:11.938Z,3.41
2018-11-27T00:49:14.522Z,3.31
2018-11-27T00:50:17.424Z,3.32
2018-11-27T00:51:20.196Z,3.37
2018-11-27T00:52:23.110Z,3.37
2018-11-27T00:53:25.784Z,3.35
2018-11-27T00:54:29.355Z,3.36
2018-11-27T00:55:32.086Z,3.33
2018-11-27T00:56:35.074Z,3.30
2018-11-27T00:57:37.709Z,3.36
2018-11-27T00:58:40.331Z,3.41
2018-11-27T00:59:43.077Z,3.45
2018-11-27T01:00:45.722Z,3.46
2018-11-27T01:01:49.508Z,3.45
2018-11-27T01:02:52.762Z,3.50
2018-11-27T01:03:55.977Z,3.50
2018-11-27T01:04:58.998Z,3.51
2018-11-27T01:06:01.582Z,3.42
2018-11-27T01:07:04.159Z,3.39
2018-11-27T01:08:06.812Z,3.36
2018-11-27T01:09:10.245Z,3.33
2018-11-27T01:10:12.985Z,3.39
2018-11-27T01:11:15.581Z,3.46
2018-11-27T01:12:18.197Z,3.51
2018-11-27T01:13:20.880Z,3.54
2018-11-27T01:14:23.483Z,3.57
2018-11-27T01:15:26.366Z,3.57
2018-11-27T01:16:28.979Z,3.54
2018-11-27T01:17:31.608Z,3.50
2018-11-27T01:18:34.232Z,3.44
2018-11-27T01:19:37.380Z,3.47
2018-11-27T01:20:40.361Z,3.51
2018-11-27T01:21:43.438Z,3.54
2018-11-27T01:22:46.265Z,3.52
2018-11-27T01:23:48.854Z,3.53
2018-11-27T01:24:51.463Z,3.49
2018-11-27T01:25:54.620Z,3.53
2018-11-27T01:26:58.178Z,3.53
2018-11-27T01:28:01.175Z,3.54
2018-11-27T01:29:04.087Z,3.52
2018-11-27T01:30:06.818Z,3.54
2018-11-27T01:31:09.458Z,3.52
2018-11-27T01:32:12.077Z,3.52
2018-11-27T01:33:14.713Z,3.48
2018-11-27T01:34:17.742Z,3.42
2018-11-27T01:35:20.882Z,3.41
2018-11-27T01:36:23.509Z,3.34
2018-11-27T01:37:26.118Z,3.31
2018-11-27T01:38:28.805Z,3.30
2018-11-27T01:39:31.691Z,3.29
2018-11-27T01:40:34.848Z,3.29
2018-11-27T01:41:37.645Z,3.28
2018-11-27T01:42:40.712Z,3.32
2018-11-27T01:43:43.622Z,3.31
2018-11-27T01:44:46.350Z,3.32
2018-11-27T01:45:48.973Z,3.35
2018-11-27T01:46:51.861Z,3.31
2018-11-27T01:47:54.448Z,3.29
2018-11-27T01:48:57.143Z,3.28
2018-11-27T01:50:00.242Z,3.24
2018-11-27T01:52:18.659Z,3.11
2018-11-27T01:53:21.543Z,3.11
2018-11-27T01:54:24.212Z,3.13
2018-11-27T01:55:26.900Z,3.15
2018-11-27T01:56:29.463Z,3.16
2018-11-27T01:57:32.915Z,3.22
2018-11-27T01:58:35.934Z,3.16
2018-11-27T01:59:38.888Z,3.14
2018-11-27T02:00:41.737Z,3.13
2018-11-27T02:01:44.388Z,3.13
2018-11-27T02:02:47.027Z,3.15
2018-11-27T02:03:49.749Z,3.12
2018-11-27T02:04:52.477Z,3.09
2018-11-27T02:05:55.423Z,3.09
2018-11-27T02:06:58.153Z,3.09
2018-11-27T02:08:00.869Z,3.07
2018-11-27T02:09:03.996Z,3.05
2018-11-27T04:55:10.401Z,2.94
2018-11-27T04:56:13.109Z,2.93
2018-11-27T04:57:15.725Z,2.95
2018-11-27T04:58:18.432Z,2.92
2018-11-27T04:59:21.173Z,2.91
2018-11-27T05:00:23.760Z,2.85
2018-11-27T05:01:26.811Z,2.86
2018-11-27T05:02:30.535Z,2.90
2018-11-27T05:03:33.178Z,2.81
2018-11-27T05:04:36.880Z,2.84
2018-11-27T05:05:39.586Z,2.86
2018-11-27T05:06:42.429Z,2.89
2018-11-27T05:07:45.379Z,2.88
2018-11-27T05:08:48.023Z,2.92
2018-11-27T05:09:50.863Z,3.01
2018-11-27T05:10:53.787Z,3.07
2018-11-27T05:11:56.386Z,3.03
2018-11-27T05:12:59.019Z,3.05
2018-11-27T05:14:01.937Z,2.97
2018-11-27T05:15:04.564Z,2.87
2018-11-27T05:16:07.172Z,2.82
2018-11-27T05:17:09.903Z,2.80
2018-11-27T05:18:13.151Z,2.78
2018-11-27T05:19:15.971Z,2.84
2018-11-27T05:20:18.891Z,2.84
2018-11-27T05:21:21.466Z,2.82
2018-11-27T05:22:24.078Z,2.81
2018-11-27T05:23:26.665Z,2.78
2018-11-27T05:24:29.273Z,2.82
2018-11-27T05:25:31.906Z,2.82
2018-11-27T05:26:34.811Z,2.84
2018-11-27T05:27:37.462Z,2.84
2018-11-27T05:28:40.094Z,2.83
2018-11-27T05:29:42.715Z,2.87
2018-11-27T05:30:45.356Z,2.79
2018-11-27T05:31:48.290Z,2.78
2018-11-27T05:32:51.512Z,2.76
2018-11-27T05:33:54.139Z,2.79
2018-11-27T05:34:56.739Z,2.80
2018-11-27T05:35:59.335Z,2.79
2018-11-27T05:37:04.896Z,2.83
2018-11-27T05:38:07.546Z,2.87
2018-11-27T05:39:10.481Z,2.95
2018-11-27T05:40:13.106Z,2.94
2018-11-27T05:41:15.708Z,2.90
2018-11-27T05:42:19.981Z,2.89
2018-11-27T05:43:21.658Z,2.88
2018-11-27T05:44:24.389Z,2.90
2018-11-27T05:45:30.427Z,2.94
2018-11-27T05:46:33.728Z,2.91
2018-11-27T05:47:36.369Z,2.90
2018-11-27T05:48:38.998Z,2.90
2018-11-27T05:49:41.578Z,2.88
2018-11-27T05:50:44.195Z,2.88
2018-11-27T05:51:47.282Z,2.88
2018-11-27T05:52:49.966Z,2.87
2018-11-27T05:53:53.632Z,2.82
2018-11-27T05:54:56.279Z,2.82
2018-11-27T05:55:58.896Z,2.83
2018-11-27T05:57:01.549Z,2.79
2018-11-27T05:58:04.587Z,2.78
2018-11-27T05:59:07.237Z,2.78
2018-11-27T06:00:10.457Z,2.76
2018-11-27T06:01:13.376Z,2.77
2018-11-27T06:02:16.007Z,2.77
2018-11-27T06:03:19.035Z,2.80
2018-11-27T06:04:22.312Z,2.83
2018-11-27T06:05:25.683Z,2.80
2018-11-27T06:06:28.306Z,2.82
2018-11-27T06:07:31.199Z,2.82
2018-11-27T06:08:33.927Z,2.85
2018-11-27T06:09:36.815Z,2.85
2018-11-27T06:10:40.420Z,2.84
2018-11-27T06:11:43.047Z,2.84
2018-11-27T06:12:45.696Z,2.80
2018-11-27T06:13:48.406Z,2.81
2018-11-27T06:14:51.020Z,2.80
2018-11-27T06:15:53.659Z,2.88
2018-11-27T06:16:56.695Z,2.80
2018-11-27T06:17:59.326Z,2.75
2018-11-27T06:19:02.014Z,2.74
2018-11-27T06:20:04.665Z,2.78
2018-11-27T06:21:07.307Z,2.77
2018-11-27T06:22:09.914Z,2.85
2018-11-27T06:24:27.907Z,2.95
2018-11-27T06:25:30.535Z,2.99
2018-11-27T06:26:33.303Z,2.96
2018-11-27T06:27:35.924Z,2.95
2018-11-27T06:28:39.058Z,2.98
2018-11-27T06:29:41.709Z,2.96
2018-11-27T06:43:56.073Z,2.86
2018-11-27T06:44:58.973Z,2.88
2018-11-27T06:46:01.666Z,2.87
2018-11-27T06:47:04.550Z,2.88
2018-11-27T06:48:07.364Z,2.90
2018-11-27T06:49:11.311Z,2.91
2018-11-27T06:50:14.096Z,2.91
2018-11-27T06:51:16.731Z,2.88
2018-11-27T06:52:19.324Z,2.90
2018-11-27T06:53:21.945Z,2.82
2018-11-27T06:54:25.102Z,2.83
2018-11-27T06:55:28.097Z,2.89
2018-11-27T06:56:30.766Z,2.93
2018-11-27T06:57:33.414Z,2.90
2018-11-27T06:58:36.124Z,2.85
2018-11-27T06:59:38.783Z,2.85
2018-11-27T07:00:41.803Z,2.83
2018-11-27T07:01:44.505Z,2.84
2018-11-27T07:02:47.137Z,2.77
2018-11-27T07:03:49.773Z,2.77
2018-11-27T07:04:52.527Z,2.82
2018-11-27T07:05:55.145Z,2.81
2018-11-27T07:06:58.448Z,2.78
2018-11-27T07:09:19.415Z,2.79
2018-11-27T07:10:22.044Z,2.78
2018-11-27T07:11:24.682Z,2.80
2018-11-27T07:12:27.291Z,2.81
2018-11-27T07:13:30.295Z,2.87
2018-11-27T07:14:32.978Z,2.86
2018-11-27T07:15:35.906Z,2.90
2018-11-27T07:16:39.686Z,2.89
2018-11-27T07:17:42.296Z,2.87
2018-11-27T07:18:45.025Z,2.92
2018-11-27T07:19:48.162Z,3.02
2018-11-27T07:20:50.844Z,3.02
2018-11-27T07:21:53.469Z,3.00
2018-11-27T07:22:56.074Z,2.96
2018-11-27T07:23:59.714Z,2.94
2018-11-27T07:25:02.334Z,2.91
2018-11-27T07:26:05.593Z,3.00
2018-11-27T07:27:08.335Z,3.03
2018-11-27T07:28:11.225Z,2.97
2018-11-27T07:29:13.893Z,2.95
2018-11-27T07:30:16.551Z,2.97
2018-11-27T07:31:20.059Z,2.97
2018-11-27T07:32:23.330Z,3.05
2018-11-27T07:33:26.000Z,3.12
2018-11-27T07:34:29.646Z,3.16
2018-11-27T07:35:32.287Z,3.18
2018-11-27T07:36:35.724Z,3.08
2018-11-27T07:37:38.337Z,3.05
2018-11-27T07:38:40.994Z,3.01
2018-11-27T07:39:43.670Z,3.03
2018-11-27T07:40:46.314Z,2.98
2018-11-27T07:41:48.958Z,2.94
2018-11-27T07:42:52.795Z,2.97
2018-11-27T07:43:54.842Z,2.92
2018-11-27T07:44:57.515Z,2.88
2018-11-27T07:46:00.124Z,2.86
2018-11-27T07:47:02.870Z,2.87
2018-11-27T07:48:06.101Z,2.92
2018-11-27T07:49:09.322Z,3.04
2018-11-27T07:50:12.208Z,3.11
2018-11-27T07:51:14.810Z,3.14
2018-11-27T07:52:18.449Z,3.18
2018-11-27T07:53:21.491Z,3.22
2018-11-27T07:54:24.125Z,3.22
2018-11-27T07:55:27.493Z,3.07
2018-11-27T07:56:30.132Z,2.92
2018-11-27T07:57:34.409Z,2.88
2018-11-27T07:58:37.073Z,2.89
2018-11-27T07:59:40.593Z,2.92
2018-11-27T08:00:44.859Z,2.91
2018-11-27T08:01:47.379Z,2.87
2018-11-27T08:02:50.673Z,2.91
2018-11-27T08:03:53.612Z,2.96
2018-11-27T08:04:57.028Z,3.01
2018-11-27T08:05:59.715Z,3.05
2018-11-27T08:07:02.371Z,3.18
2018-11-27T08:08:06.306Z,3.28
2018-11-27T08:09:10.126Z,3.43
2018-11-27T08:10:13.736Z,3.46
2018-11-27T08:11:16.707Z,3.45
2018-11-27T08:12:20.932Z,3.50
2018-11-27T08:13:23.645Z,3.51
2018-11-27T08:14:32.748Z,3.40
2018-11-27T08:15:35.383Z,3.36
2018-11-27T08:16:37.999Z,3.39
2018-11-27T08:17:40.648Z,3.44
2018-11-27T08:18:43.261Z,3.42
2018-11-27T08:19:46.269Z,3.40
2018-11-27T08:20:50.028Z,3.44
2018-11-27T08:21:52.695Z,3.44
2018-11-27T08:22:55.703Z,3.43
2018-11-27T08:23:58.362Z,3.41
2018-11-27T08:25:01.640Z,3.37
2018-11-27T08:26:04.742Z,3.38
2018-11-27T08:27:07.408Z,3.28
2018-11-27T08:28:10.206Z,3.30
2018-11-27T08:29:12.831Z,3.35
2018-11-27T08:30:15.526Z,3.33
2018-11-27T08:31:19.128Z,3.31
2018-11-27T08:32:22.241Z,3.39
2018-11-27T08:33:25.863Z,3.42
2018-11-27T08:34:29.264Z,3.35
2018-11-27T08:35:31.923Z,3.32
2018-11-27T08:36:34.557Z,3.33
2018-11-27T08:37:37.247Z,3.41
2018-11-27T08:38:40.223Z,3.31
2018-11-27T08:39:42.922Z,3.28
2018-11-27T08:40:45.605Z,3.30
2018-11-27T08:41:48.494Z,3.38
2018-11-27T08:42:52.196Z,3.28
2018-11-27T08:43:54.833Z,3.18
2018-11-27T08:44:57.792Z,3.13
2018-11-27T08:46:00.419Z,3.11
2018-11-27T08:47:03.120Z,3.16
2018-11-27T08:48:06.064Z,3.21
2018-11-27T08:49:09.712Z,3.20
2018-11-27T08:50:16.952Z,3.21
2018-11-27T08:51:21.739Z,3.19
2018-11-27T08:52:24.701Z,3.32
2018-11-27T08:53:28.441Z,3.40
2018-11-27T08:54:32.632Z,3.42
2018-11-27T08:55:35.337Z,3.35
2018-11-27T08:56:37.979Z,3.24
2018-11-27T08:57:42.365Z,3.21
2018-11-27T08:58:45.026Z,3.19
2018-11-27T08:59:48.811Z,3.24
2018-11-27T09:00:52.346Z,3.32
2018-11-27T09:01:54.961Z,3.35
2018-11-27T09:02:57.666Z,3.39
2018-11-27T09:04:36.606Z,3.43
2018-11-27T09:05:39.281Z,3.45
2018-11-27T09:06:42.132Z,3.48
2018-11-27T09:07:44.828Z,3.45
2018-11-27T09:08:47.606Z,3.45
2018-11-27T09:09:51.134Z,3.42
2018-11-27T09:10:53.731Z,3.45
2018-11-27T09:11:56.382Z,3.43
2018-11-27T09:12:59.195Z,3.37
2018-11-27T09:14:02.723Z,3.37
2018-11-27T09:15:06.527Z,3.31
2018-11-27T09:16:10.140Z,3.28
2018-11-27T09:17:12.836Z,3.29
2018-11-27T09:18:15.465Z,3.24
2018-11-27T09:19:18.256Z,3.32
2018-11-27T09:20:21.037Z,3.35
2018-11-27T09:21:23.822Z,3.40
2018-11-27T09:22:27.161Z,3.46
2018-11-27T09:23:29.783Z,3.47
2018-11-27T09:24:32.608Z,3.47
2018-11-27T09:25:35.262Z,3.46
2018-11-27T09:26:38.067Z,3.46
2018-11-27T09:27:40.714Z,3.45
2018-11-27T09:28:43.841Z,3.44
2018-11-27T09:29:46.636Z,3.45
2018-11-27T09:30:50.087Z,3.48
2018-11-27T09:31:52.688Z,3.48
2018-11-27T09:32:56.110Z,3.52
2018-11-27T09:33:58.858Z,3.49
2018-11-27T09:35:02.818Z,3.47
2018-11-27T09:36:06.349Z,3.45
2018-11-27T09:37:09.992Z,3.44
2018-11-27T09:39:27.035Z,3.59
2018-11-27T09:40:29.939Z,3.66
2018-11-27T09:41:32.877Z,3.67
2018-11-27T09:42:35.541Z,3.67
2018-11-27T09:43:38.516Z,3.57
2018-11-27T09:44:42.017Z,3.53
2018-11-27T09:45:45.329Z,3.54
2018-11-27T09:46:49.347Z,3.59
2018-11-27T09:47:52.402Z,3.66
2018-11-27T09:48:55.091Z,3.70
2018-11-27T09:49:57.881Z,3.67
2018-11-27T09:51:00.517Z,3.57
2018-11-27T09:52:03.800Z,3.52
2018-11-27T09:53:06.900Z,3.56
2018-11-27T09:54:09.891Z,3.63
2018-11-27T09:55:12.558Z,3.68
2018-11-27T09:56:15.206Z,3.73
2018-11-27T09:57:18.611Z,3.67
2018-11-27T09:58:21.355Z,3.67
2018-11-27T09:59:24.364Z,3.67
2018-11-27T10:00:27.453Z,3.73
2018-11-27T10:01:30.090Z,3.63
2018-11-27T10:02:33.171Z,3.56
2018-11-27T10:03:35.826Z,3.63
2018-11-27T10:04:38.708Z,3.67
2018-11-27T10:05:41.366Z,3.66
2018-11-27T10:06:44.514Z,3.65
2018-11-27T10:07:47.143Z,3.67
2018-11-27T10:08:49.810Z,3.64
2018-11-27T10:09:53.271Z,3.68
2018-11-27T10:10:55.924Z,3.69
2018-11-27T10:11:58.541Z,3.70
2018-11-27T10:13:01.918Z,3.66
2018-11-27T10:14:04.911Z,3.76
2018-11-27T10:15:07.562Z,3.81
2018-11-27T10:16:12.674Z,3.79
2018-11-27T10:17:15.439Z,3.84
2018-11-27T10:18:18.071Z,3.81
2018-11-27T10:19:26.606Z,3.81
2018-11-27T10:20:23.979Z,3.82
2018-11-27T10:21:26.595Z,3.77
2018-11-27T10:22:29.489Z,3.77
2018-11-27T10:23:32.079Z,3.79
2018-11-27T10:24:34.735Z,3.82
2018-11-27T10:25:37.734Z,3.75
2018-11-27T10:26:40.361Z,3.76
2018-11-27T10:27:43.097Z,3.78
2018-11-27T10:28:45.752Z,3.84
2018-11-27T10:29:48.741Z,3.80
2018-11-27T10:30:51.782Z,3.81
2018-11-27T10:31:55.018Z,3.79
2018-11-27T10:32:57.718Z,3.82
2018-11-27T10:34:00.339Z,3.69
2018-11-27T10:35:02.992Z,3.73
2018-11-27T10:36:05.691Z,3.77
2018-11-27T10:37:08.462Z,3.83
2018-11-27T10:38:11.709Z,3.87
2018-11-27T10:39:14.585Z,3.85
2018-11-27T10:40:17.222Z,3.83
2018-11-27T10:41:19.874Z,3.73
2018-11-27T10:42:22.666Z,3.70
2018-11-27T10:43:25.635Z,3.72
2018-11-27T10:44:29.229Z,3.80
2018-11-27T10:45:31.928Z,3.85
2018-11-27T10:46:36.145Z,3.92
2018-11-27T10:48:57.109Z,3.89
2018-11-27T10:49:59.787Z,3.78
2018-11-27T10:51:02.850Z,3.78
2018-11-27T10:52:05.596Z,3.85
2018-11-27T10:53:09.326Z,3.85
2018-11-27T10:54:13.679Z,3.82
2018-11-27T10:55:17.726Z,3.80
2018-11-27T10:56:20.525Z,3.71
2018-11-27T10:57:24.678Z,3.64
2018-11-27T10:58:28.436Z,3.65
2018-11-27T10:59:31.256Z,3.55
2018-11-27T11:00:39.191Z,3.44
2018-11-27T11:01:47.000Z,3.47
2018-11-27T11:02:54.769Z,3.54
2018-11-27T11:03:59.687Z,3.66
2018-11-27T11:05:03.153Z,3.54
2018-11-27T11:06:07.134Z,3.38
2018-11-27T11:07:10.332Z,3.42
2018-11-27T11:08:14.032Z,3.44
2018-11-27T11:09:17.386Z,3.36
2018-11-27T11:10:21.092Z,3.36
2018-11-27T11:11:24.087Z,3.33
2018-11-27T11:12:26.815Z,3.33
2018-11-27T11:13:29.684Z,3.32
2018-11-27T11:14:33.426Z,3.37
2018-11-27T11:15:37.171Z,3.47
2018-11-27T11:16:39.928Z,3.61
2018-11-27T11:17:42.970Z,3.54
2018-11-27T11:18:45.698Z,3.49
2018-11-27T11:19:48.363Z,3.40
2018-11-27T11:20:50.993Z,3.40
2018-11-27T11:21:54.122Z,3.50
2018-11-27T11:22:56.760Z,3.63
2018-11-27T11:23:59.476Z,3.75
2018-11-27T11:25:02.131Z,3.85
2018-11-27T11:26:05.152Z,3.93
2018-11-27T11:27:08.331Z,3.88
2018-11-27T11:28:11.438Z,3.71
2018-11-27T11:29:14.283Z,3.58
2018-11-27T11:42:48.319Z,3.75
2018-11-27T11:43:51.445Z,3.70
2018-11-27T11:44:54.098Z,3.75
2018-11-27T11:45:56.776Z,3.88
2018-11-27T11:46:59.509Z,4.00
2018-11-27T11:48:03.252Z,4.03
2018-11-27T11:49:06.006Z,4.04
2018-11-27T11:50:09.464Z,4.06
2018-11-27T11:51:12.127Z,4.08
2018-11-27T11:52:14.792Z,4.01
2018-11-27T11:53:17.393Z,4.06
2018-11-27T11:54:20.562Z,4.05
2018-11-27T11:55:23.961Z,3.94
2018-11-27T11:56:26.629Z,3.82
2018-11-27T11:58:39.965Z,3.81
2018-11-27T11:59:42.649Z,3.76
2018-11-27T12:00:48.342Z,3.68
2018-11-27T12:01:50.954Z,3.57
2018-11-27T12:02:54.196Z,3.62
2018-11-27T12:03:56.933Z,3.76
2018-11-27T12:04:59.651Z,3.67
2018-11-27T12:06:03.854Z,3.50
2018-11-27T12:07:07.015Z,3.48
2018-11-27T12:08:09.729Z,3.50
2018-11-27T12:09:13.294Z,3.38
2018-11-27T12:10:16.348Z,3.41
2018-11-27T12:11:18.989Z,3.42
2018-11-27T12:12:21.604Z,3.31
2018-11-27T12:13:24.820Z,3.24
2018-11-27T12:14:27.875Z,3.30
2018-11-27T12:15:30.583Z,3.44
2018-11-27T12:16:34.115Z,3.50
2018-11-27T12:17:37.994Z,3.42
2018-11-27T12:18:40.746Z,3.47
2018-11-27T12:19:43.463Z,3.37
2018-11-27T12:20:46.655Z,3.36
2018-11-27T12:21:49.324Z,3.50
2018-11-27T12:22:52.616Z,3.54
2018-11-27T12:23:55.374Z,3.45
2018-11-27T12:25:00.487Z,3.38
2018-11-27T12:26:03.502Z,3.37
2018-11-27T12:27:06.495Z,3.35
2018-11-27T12:28:14.336Z,3.40
2018-11-27T12:29:12.384Z,3.37
2018-11-27T12:30:16.396Z,3.25
2018-11-27T12:31:19.710Z,3.15
2018-11-27T12:32:23.459Z,3.07
2018-11-27T12:33:26.146Z,2.94
2018-11-27T12:34:29.198Z,2.92
2018-11-27T12:35:32.020Z,2.90
2018-11-27T12:36:34.819Z,2.87
2018-11-27T12:37:38.134Z,2.81
2018-11-27T12:38:40.910Z,2.77
2018-11-27T12:39:43.679Z,2.77
2018-11-27T12:40:46.544Z,2.86
2018-11-27T12:41:49.360Z,2.86
2018-11-27T12:42:52.307Z,2.90
2018-11-27T12:43:56.136Z,2.92
2018-11-27T12:45:00.165Z,2.82
2018-11-27T12:46:05.235Z,2.73
2018-11-27T12:47:07.838Z,2.67
2018-11-27T12:48:10.556Z,2.65
2018-11-27T12:49:14.728Z,2.67
2018-11-27T12:50:18.057Z,2.82
2018-11-27T12:51:21.321Z,2.83
2018-11-27T12:52:26.405Z,2.74
2018-11-27T12:53:29.429Z,2.62
2018-11-27T12:54:36.324Z,2.67
2018-11-27T12:55:39.972Z,2.68
2018-11-27T12:56:43.793Z,2.77
2018-11-27T12:57:50.885Z,2.82
2018-11-27T12:58:53.764Z,2.86
2018-11-27T12:59:56.467Z,2.84
2018-11-27T13:00:59.438Z,2.81
2018-11-27T13:02:02.100Z,2.75
2018-11-27T13:03:05.458Z,2.76
2018-11-27T13:04:08.481Z,2.76
2018-11-27T13:05:11.388Z,2.85
2018-11-27T13:06:14.272Z,2.96
2018-11-27T13:07:17.575Z,3.11
2018-11-27T13:08:20.348Z,3.08
2018-11-27T13:09:24.871Z,3.00
2018-11-27T13:10:27.750Z,3.02
2018-11-27T13:11:32.769Z,2.99
2018-11-27T13:12:40.462Z,3.02
2018-11-27T13:13:44.229Z,3.05
2018-11-27T13:14:46.902Z,3.03
2018-11-27T13:15:49.647Z,3.01
2018-11-27T13:16:53.466Z,2.80
2018-11-27T13:17:56.187Z,2.78
2018-11-27T13:18:59.499Z,2.70
2018-11-27T13:20:02.149Z,2.70
2018-11-27T13:21:05.105Z,2.79
2018-11-27T13:22:09.889Z,2.76
2018-11-27T13:23:14.366Z,2.68
2018-11-27T13:24:17.017Z,2.60
2018-11-27T13:25:20.405Z,2.62
2018-11-27T13:26:24.378Z,2.68
2018-11-27T13:27:27.527Z,2.78
2018-11-27T13:28:31.477Z,2.79
2018-11-27T13:29:34.869Z,2.80
2018-11-27T13:30:38.690Z,2.65
2018-11-27T13:31:42.252Z,2.65
2018-11-27T13:32:45.288Z,2.70
2018-11-27T13:33:50.000Z,2.84
2018-11-27T13:34:52.948Z,2.83
2018-11-27T13:35:55.837Z,2.74
2018-11-27T13:37:02.944Z,2.66
2018-11-27T13:38:04.746Z,2.70
2018-11-27T13:39:07.636Z,2.76
2018-11-27T13:40:12.014Z,2.74
2018-11-27T13:41:15.807Z,2.69
2018-11-27T13:42:18.625Z,2.65
2018-11-27T13:43:22.457Z,2.64
2018-11-27T13:44:25.876Z,2.58
2018-11-27T13:45:28.510Z,2.51
2018-11-27T13:46:31.518Z,2.58
2018-11-27T13:47:34.190Z,2.64
2018-11-27T13:48:37.658Z,2.68
2018-11-27T13:49:40.776Z,2.69
2018-11-27T13:50:43.636Z,2.71
2018-11-27T13:51:46.786Z,2.73
2018-11-27T13:52:50.668Z,2.76
2018-11-27T13:53:54.570Z,2.72
2018-11-27T13:54:57.229Z,2.69
2018-11-27T13:56:01.030Z,2.76
2018-11-27T13:57:04.378Z,2.69
2018-11-27T13:58:07.429Z,2.69
2018-11-27T13:59:10.101Z,2.60
2018-11-27T14:00:12.890Z,2.47
2018-11-27T14:01:16.327Z,2.51
2018-11-27T14:02:20.715Z,2.45
2018-11-27T14:03:23.542Z,2.47
2018-11-27T14:04:27.937Z,2.53
2018-11-27T14:05:30.742Z,2.46
2018-11-27T14:06:34.963Z,2.47
2018-11-27T14:07:37.641Z,2.44
2018-11-27T14:08:40.648Z,2.47
2018-11-27T14:09:43.418Z,2.47
2018-11-27T14:10:46.855Z,2.49
2018-11-27T14:11:49.754Z,2.55
2018-11-27T14:12:53.201Z,2.55
2018-11-27T14:13:57.633Z,2.54
2018-11-27T14:15:01.669Z,2.46
2018-11-27T14:16:05.323Z,2.37
2018-11-27T14:17:08.945Z,2.40
2018-11-27T14:18:13.052Z,2.44
2018-11-27T14:19:16.554Z,2.50
2018-11-27T14:20:19.449Z,2.46
2018-11-27T14:21:23.396Z,2.50
2018-11-27T14:22:26.382Z,2.57
2018-11-27T14:23:30.222Z,2.57
2018-11-27T14:24:33.647Z,2.46
2018-11-27T14:25:38.710Z,2.37
2018-11-27T14:26:42.268Z,2.37
2018-11-27T14:27:48.062Z,2.34
2018-11-27T14:28:50.655Z,2.37
2018-11-27T14:29:54.261Z,2.39
2018-11-27T14:30:56.900Z,2.45
2018-11-27T14:32:00.314Z,2.52
2018-11-27T14:33:03.019Z,2.57
2018-11-27T14:34:05.838Z,2.61
2018-11-27T14:35:09.070Z,2.60
2018-11-27T14:36:12.239Z,2.60
2018-11-27T14:37:15.746Z,2.57
2018-11-27T14:38:19.078Z,2.60
2018-11-27T14:39:21.704Z,2.60
2018-11-27T14:40:24.896Z,2.58
2018-11-27T14:41:27.613Z,2.58
2018-11-27T14:42:30.711Z,2.55
2018-11-27T14:43:36.224Z,2.58
2018-11-27T14:44:39.837Z,2.53
2018-11-27T14:45:43.405Z,2.46
2018-11-27T14:46:46.102Z,2.39
2018-11-27T14:47:49.687Z,2.36
2018-11-27T14:48:59.682Z,2.40
2018-11-27T14:50:04.171Z,2.42
2018-11-27T14:51:08.204Z,2.36
2018-11-27T14:52:11.352Z,2.32
2018-11-27T14:53:14.584Z,2.37
2018-11-27T14:54:17.678Z,2.41
2018-11-27T14:55:21.254Z,2.38
2018-11-27T14:56:24.017Z,2.31
2018-11-27T14:57:27.046Z,2.39
2018-11-27T14:58:29.971Z,2.50
2018-11-27T14:59:34.451Z,2.56
2018-11-27T15:00:38.861Z,2.48
2018-11-27T15:01:42.051Z,2.41
2018-11-27T15:02:45.537Z,2.40
2018-11-27T15:03:48.483Z,2.36
2018-11-27T15:04:51.296Z,2.30
2018-11-27T15:05:55.269Z,2.27
2018-11-27T15:06:58.730Z,2.26
2018-11-27T15:08:04.158Z,2.23
2018-11-27T15:09:09.303Z,2.20
2018-11-27T15:10:13.223Z,2.22
2018-11-27T15:11:15.943Z,2.22
2018-11-27T15:12:18.679Z,2.22
2018-11-27T15:13:21.419Z,2.18
2018-11-27T15:14:25.398Z,2.23
2018-11-27T15:15:27.563Z,2.29
2018-11-27T15:16:30.457Z,2.37
2018-11-27T15:17:33.090Z,2.38
2018-11-27T15:18:36.248Z,2.37
2018-11-27T15:19:38.910Z,2.28
2018-11-27T15:20:43.161Z,2.30
2018-11-27T15:21:48.005Z,2.36
2018-11-27T15:22:52.747Z,2.36
2018-11-27T15:23:56.253Z,2.35
2018-11-27T15:24:59.639Z,2.39
2018-11-27T15:26:02.665Z,2.40
2018-11-27T15:27:05.848Z,2.43
2018-11-27T15:28:09.529Z,2.43
2018-11-27T15:29:12.926Z,2.46
2018-11-27T15:30:16.056Z,2.46
2018-11-27T15:31:19.481Z,2.44
2018-11-27T15:32:23.121Z,2.41
2018-11-27T15:33:27.059Z,2.46
2018-11-27T15:34:34.797Z,2.38
2018-11-27T15:35:38.329Z,2.34
2018-11-27T15:36:41.247Z,2.33
2018-11-27T15:37:45.239Z,2.30
2018-11-27T15:38:49.504Z,2.27
2018-11-27T15:39:55.659Z,2.25
2018-11-27T15:40:59.529Z,2.30
2018-11-27T15:42:02.931Z,2.28
2018-11-27T15:43:07.242Z,2.25
2018-11-27T15:44:10.009Z,2.26
2018-11-27T15:45:13.111Z,2.32
2018-11-27T15:46:18.598Z,2.39
2018-11-27T15:47:24.360Z,2.35
2018-11-27T15:48:27.023Z,2.34
2018-11-27T15:49:29.877Z,2.30
2018-11-27T15:50:36.019Z,2.29
2018-11-27T15:51:38.681Z,2.28
2018-11-27T15:52:42.210Z,2.30
2018-11-27T15:53:45.887Z,2.30
2018-11-27T15:54:49.687Z,2.23
2018-11-27T15:56:01.797Z,2.23
2018-11-27T15:57:06.145Z,2.16
2018-11-27T15:58:09.816Z,2.15
2018-11-27T15:59:13.730Z,2.20
2018-11-27T16:00:16.756Z,2.21
2018-11-27T16:01:19.932Z,2.21
2018-11-27T16:02:23.578Z,2.17
2018-11-27T16:03:28.570Z,2.17
2018-11-27T16:04:32.502Z,2.21
2018-11-27T16:05:35.843Z,2.24
2018-11-27T16:06:38.916Z,2.18
2018-11-27T16:07:42.603Z,2.17
2018-11-27T16:08:45.417Z,2.16
2018-11-27T16:09:48.159Z,2.16
2018-11-27T16:10:51.367Z,2.02
2018-11-27T16:11:55.342Z,1.98
2018-11-27T16:12:58.013Z,2.02
2018-11-27T16:14:00.716Z,2.02
2018-11-27T16:15:04.426Z,2.00
2018-11-27T16:16:07.201Z,1.99
2018-11-27T16:17:10.738Z,2.01
2018-11-27T16:18:14.434Z,2.06
2018-11-27T16:19:17.541Z,1.98
2018-11-27T16:20:21.463Z,2.02
2018-11-27T16:21:25.320Z,2.03
2018-11-27T16:22:28.388Z,2.02
2018-11-27T16:23:31.336Z,2.01
2018-11-27T16:24:36.520Z,2.01
2018-11-27T16:25:39.461Z,2.02
2018-11-27T16:26:43.499Z,2.03
2018-11-27T16:27:49.541Z,2.06
2018-11-27T16:28:52.447Z,2.03
2018-11-27T16:29:55.315Z,2.00
2018-11-27T16:31:00.078Z,2.00
2018-11-27T16:32:02.957Z,2.03
2018-11-27T16:33:06.660Z,2.03
2018-11-27T16:34:12.581Z,1.93
2018-11-27T16:35:16.699Z,1.96
2018-11-27T16:36:19.419Z,1.99
2018-11-27T16:37:24.542Z,2.00
2018-11-27T16:38:27.369Z,2.00
2018-11-27T16:39:30.048Z,1.97
2018-11-27T16:40:33.515Z,1.88
2018-11-27T16:41:36.239Z,1.88
2018-11-27T16:42:39.957Z,1.82
2018-11-27T16:43:43.336Z,1.86
2018-11-27T16:44:49.967Z,1.92
2018-11-27T16:45:55.483Z,1.97
2018-11-27T16:46:59.010Z,1.98
2018-11-27T16:48:03.170Z,1.95
2018-11-27T16:49:06.624Z,1.95
2018-11-27T16:50:09.993Z,1.94
2018-11-27T16:51:12.888Z,1.93
2018-11-27T16:52:16.635Z,1.97
2018-11-27T16:53:23.751Z,1.95
2018-11-27T16:54:27.847Z,1.76
2018-11-27T16:55:32.156Z,1.79
2018-11-27T16:56:36.547Z,1.86
2018-11-27T16:57:40.523Z,1.83
2018-11-27T16:58:43.901Z,1.77
2018-11-27T16:59:48.267Z,1.75
2018-11-27T17:00:52.694Z,1.83
2018-11-27T17:01:56.424Z,1.83
2018-11-27T17:03:00.440Z,1.85
2018-11-27T17:04:03.214Z,1.85
2018-11-27T17:05:07.075Z,1.83
2018-11-27T17:06:12.250Z,1.74
2018-11-27T17:07:15.687Z,1.76
2018-11-27T17:08:22.571Z,1.78
2018-11-27T17:09:25.991Z,1.74
2018-11-27T17:10:28.750Z,1.67
2018-11-27T17:11:31.524Z,1.65
2018-11-27T17:12:34.727Z,1.72
2018-11-27T17:13:37.866Z,1.71
2018-11-27T17:14:42.173Z,1.69
2018-11-27T17:15:47.194Z,1.64
2018-11-27T17:16:50.336Z,1.62
2018-11-27T17:17:53.133Z,1.60
2018-11-27T17:18:56.996Z,1.57
2018-11-27T17:19:59.962Z,1.61
2018-11-27T17:21:04.606Z,1.60
2018-11-27T17:22:07.448Z,1.63